Latest Weather Observations for Gingin Airport

IDW60801

Issued at 9:35 pm WST Thursday 31 July 2014 (issued every 30 minutes, with the page automatically refreshed every 10 minutes)

About weather observations | Map of weather stations | Latest weather observations for WA | Other Formats
Station Details ID: 009178 Name: GINGIN AERO Lat: -31.46 Lon: 115.86 Height: 73.0 m
Data from the previous 72 hours. | See also: Recent months at Gingin Airport
Date/Time
WST
Temp
°C
App
Temp
°C
Dew
Point
Rel
Hum
%
Delta-T
°C
Wind Press
QNH
hPa
Press
MSL
hPa
Rain
since 9 am
mm
Dir
 
Spd
km/h
Gust
km/h
Spd
kts
Gust
kts
31/09:30pm 4.9 2.6 4.8 99 0.0 E 6 7 3 4 1028.2 - 0.0
31/09:00pm 5.4 4.2 4.8 96 0.3 E 0 6 0 3 1027.9 1028.0 0.0
31/08:30pm 6.6 4.4 5.4 92 0.5 E 6 6 3 3 1027.6 - 0.0
31/08:00pm 7.5 5.2 5.8 89 0.8 E 7 9 4 5 1027.3 1027.4 0.0
31/07:30pm 8.6 6.4 6.4 86 1.0 E 7 9 4 5 1027.2 - 0.0
31/07:00pm 8.8 6.2 6.2 84 1.2 E 9 13 5 7 1027.1 1027.2 0.0
31/06:30pm 9.8 6.5 6.2 78 1.7 E 13 15 7 8 1026.8 - 0.0
31/06:00pm 11.4 8.0 6.1 70 2.5 E 13 17 7 9 1026.5 1026.6 0.0
31/05:30pm 12.6 9.3 6.2 65 3.0 E 13 19 7 10 1026.2 - 0.0
31/05:00pm 13.7 9.5 5.8 59 3.7 E 17 20 9 11 1025.9 1026.0 0.0
31/04:30pm 14.2 10.0 5.6 56 4.1 E 17 20 9 11 1025.8 - 0.0
31/04:00pm 14.6 10.0 5.7 55 4.2 E 19 24 10 13 1025.6 1025.7 0.0
31/03:30pm 14.9 10.3 5.4 53 4.5 E 19 26 10 14 1025.6 - 0.0
31/03:00pm 14.9 10.6 5.4 53 4.5 E 17 22 9 12 1025.5 1025.6 0.0
31/02:30pm 15.4 11.2 5.9 53 4.6 E 17 22 9 12 1025.4 - 0.0
31/02:00pm 15.1 11.0 6.1 55 4.3 E 17 28 9 15 1025.5 1025.6 0.0
31/01:30pm 14.5 10.3 5.8 56 4.2 E 17 26 9 14 1025.8 - 0.0
31/01:00pm 14.3 9.7 5.4 55 4.2 E 19 30 10 16 1026.2 1026.3 0.0
31/12:30pm 13.6 9.8 6.0 60 3.6 ESE 15 20 8 11 1026.8 - 0.0
31/12:00pm 13.2 9.4 5.6 60 3.6 ESE 15 24 8 13 1027.2 1027.3 0.0
31/11:30am 12.8 9.0 5.7 62 3.3 SE 15 22 8 12 1027.5 - 0.0
31/11:00am 12.6 9.0 6.6 67 2.9 SE 15 20 8 11 1027.7 1027.8 0.0
31/10:30am 13.0 8.4 6.4 64 3.2 E 20 28 11 15 1027.8 - 0.0
31/10:00am 11.6 7.2 6.5 71 2.4 SE 19 22 10 12 1027.8 1027.9 0.0
31/09:30am 11.4 7.1 7.1 75 2.1 SE 19 24 10 13 1027.6 - 0.0
31/09:00am 11.5 7.3 7.6 77 1.9 SSE 19 28 10 15 1027.4 1027.5 0.8
31/08:30am 10.6 7.9 8.9 89 0.8 SSE 13 17 7 9 1027.0 - 0.8
31/08:00am 8.8 6.8 8.5 98 0.1 SSE 9 11 5 6 1026.7 1026.8 0.8
31/07:30am 7.8 5.6 7.8 100 0.0 SSE 9 11 5 6 1026.1 - 0.8
31/07:00am 8.2 5.2 7.9 98 0.1 SSE 13 17 7 9 1025.6 1025.7 0.8
31/06:30am 8.8 6.0 8.4 97 0.2 SSE 13 17 7 9 1025.1 - 0.8
31/06:00am 9.6 6.1 8.7 94 0.4 SSE 17 22 9 12 1024.6 1024.6 0.8
31/05:30am 10.6 6.9 10.0 96 0.3 SSE 20 28 11 15 1024.2 - 0.8
31/05:00am 11.2 7.9 11.0 99 0.1 S 19 28 10 15 1023.7 1023.7 0.8
31/04:30am 11.5 8.4 11.5 100 0.0 SSE 19 24 10 13 1023.4 - 0.8
31/04:00am 11.8 7.8 11.8 100 0.0 SSE 24 32 13 17 1023.5 1023.5 0.8
31/03:30am 12.4 9.9 12.4 100 0.0 S 17 22 9 12 1023.4 - 0.8
31/03:00am 12.4 10.3 12.4 100 0.0 S 15 20 8 11 1023.3 1023.3 0.8
31/02:30am 12.4 11.8 12.4 100 0.0 SSW 7 9 4 5 1023.1 - 0.6
31/02:00am 11.7 9.8 11.7 100 0.0 S 13 17 7 9 1023.0 1023.0 0.4
31/01:30am 11.4 10.5 11.4 100 0.0 SSE 7 9 4 5 1022.8 - 0.4
31/01:00am 10.3 8.7 10.3 100 0.0 SW 9 11 5 6 1022.9 1022.9 0.4
31/12:30am 10.6 9.5 10.6 100 0.0 W 7 7 4 4 1022.8 - 0.4
31/12:00am 11.3 10.4 11.3 100 0.0 NNW 7 9 4 5 1022.7 1022.7 0.4
 
Date/Time
WST
Temp
°C
App
Temp
°C
Dew
Point
Rel
Hum
%
Delta-T
°C
Wind Press
QNH
hPa
Press
MSL
hPa
Rain
since 9 am
mm
Dir
 
Spd
km/h
Gust
km/h
Spd
kts
Gust
kts
30/11:30pm 12.0 11.5 12.0 100 0.0 N 6 7 3 4 1022.7 - 0.4
30/11:00pm 12.9 12.7 12.9 100 0.0 NW 6 7 3 4 1022.8 1022.8 0.4
30/10:30pm 13.5 13.5 13.5 100 0.0 W 6 7 3 4 1022.8 - 0.4
30/10:00pm 13.7 13.2 13.7 100 0.0 W 9 15 5 8 1022.7 1022.7 0.2
30/09:30pm 13.6 14.7 13.6 100 0.0 CALM 0 0 0 0 1022.9 - 0.0
30/09:00pm 14.2 11.6 13.7 97 0.3 SW 20 26 11 14 1023.0 1023.0 0.0
30/08:30pm 14.2 13.4 11.7 85 1.3 W 7 9 4 5 1022.7 - 0.0
30/08:00pm 14.1 13.0 12.1 88 1.1 WNW 9 11 5 6 1022.6 1022.6 0.0
30/07:30pm 13.4 12.6 11.6 89 1.0 NW 7 7 4 4 1022.5 - 0.0
30/07:00pm 14.4 13.6 11.7 84 1.4 W 7 9 4 5 1022.4 1022.4 0.0
30/06:30pm 14.7 13.9 11.8 83 1.6 W 7 9 4 5 1022.4 - 0.0
30/06:00pm 15.8 14.6 11.6 76 2.3 W 9 11 5 6 1022.1 1022.1 0.0
30/05:30pm 16.3 14.3 11.5 73 2.6 W 13 20 7 11 1022.2 - 0.0
30/05:00pm 16.2 15.0 11.6 74 2.5 W 9 15 5 8 1022.2 1022.2 0.0
30/04:30pm 16.4 13.9 10.9 70 3.0 W 15 24 8 13 1022.1 - 0.0
30/04:00pm 16.9 14.0 9.6 62 3.8 W 15 26 8 14 1022.0 1022.0 0.0
30/03:30pm 17.3 13.6 9.5 60 4.1 W 19 26 10 14 1021.9 - 0.0
30/03:00pm 17.7 13.7 9.1 57 4.5 WNW 20 24 11 13 1021.7 1021.7 0.0
30/02:30pm 17.8 13.0 8.9 56 4.6 WSW 24 33 13 18 1021.7 - 0.0
30/02:00pm 17.9 14.1 11.0 64 3.7 W 22 37 12 20 1021.6 1021.6 0.0
30/01:30pm 17.4 12.9 10.1 62 3.9 W 24 32 13 17 1021.7 - 0.0
30/01:00pm 17.8 13.6 9.9 60 4.2 W 22 28 12 15 1021.7 1021.7 0.0
30/12:30pm 17.7 14.2 11.0 65 3.6 W 20 32 11 17 1021.8 - 0.0
30/12:00pm 17.4 13.4 10.5 64 3.7 W 22 30 12 16 1022.2 1022.2 0.0
30/11:30am 17.5 13.8 10.1 62 3.9 WSW 20 28 11 15 1022.5 - 0.0
30/11:00am 17.4 14.3 11.7 69 3.1 W 19 22 10 12 1022.7 1022.7 0.0
30/10:30am 16.6 15.9 13.3 81 1.9 NW 9 15 5 8 1022.8 - 0.0
30/10:00am 16.0 15.6 13.1 83 1.6 W 7 9 4 5 1023.0 1023.0 0.0
30/09:30am 15.0 14.4 13.4 90 0.9 NW 9 11 5 6 1022.9 - 0.0
30/09:00am 14.3 14.2 14.0 98 0.2 NNW 7 11 4 6 1022.8 1022.8 0.0
30/08:30am 13.8 13.9 13.8 100 0.0 NNW 6 9 3 5 1022.5 - 0.0
30/08:00am 13.5 14.6 13.5 100 0.0 CALM 0 2 0 1 1022.4 1022.4 0.0
30/07:30am 13.2 12.9 13.2 100 0.0 NNW 7 9 4 5 1022.3 - 0.0
30/07:00am 13.2 12.9 13.2 100 0.0 N 7 11 4 6 1022.1 1022.1 0.0
30/06:30am 13.1 12.7 13.1 100 0.0 N 7 11 4 6 1022.1 - 0.0
30/06:00am 13.2 13.1 13.2 100 0.0 N 6 7 3 4 1022.1 1022.1 0.0
30/05:30am 13.6 13.1 12.7 94 0.5 N 7 9 4 5 1022.1 - 0.0
30/05:00am 14.1 13.2 12.7 91 0.8 NW 9 11 5 6 1022.1 1022.1 0.0
30/04:30am 13.8 13.4 12.5 92 0.7 W 6 7 3 4 1022.1 - 0.0
30/04:00am 14.0 13.0 12.4 90 0.9 NW 9 11 5 6 1022.0 1022.0 0.0
30/03:30am 13.9 13.4 12.5 91 0.8 NNW 7 9 4 5 1022.2 - 0.0
30/03:00am 13.6 13.4 13.0 96 0.3 NNW 6 7 3 4 1022.4 1022.4 0.0
30/02:30am 13.7 13.4 13.2 97 0.3 NNW 7 9 4 5 1022.8 - 0.0
30/02:00am 13.5 13.3 13.5 100 0.0 NNW 7 9 4 5 1023.1 1023.1 0.0
30/01:30am 13.5 13.5 13.5 100 0.0 NNW 6 9 3 5 1023.4 - 0.0
30/01:00am 13.5 13.3 13.5 100 0.0 NW 7 9 4 5 1023.5 1023.5 0.0
30/12:30am 13.6 13.6 13.6 100 0.0 NNW 6 9 3 5 1023.4 - 0.0
30/12:00am 13.7 13.5 13.7 100 0.0 NNW 7 11 4 6 1023.4 1023.4 0.0
 
Date/Time
WST
Temp
°C
App
Temp
°C
Dew
Point
Rel
Hum
%
Delta-T
°C
Wind Press
QNH
hPa
Press
MSL
hPa
Rain
since 9 am
mm
Dir
 
Spd
km/h
Gust
km/h
Spd
kts
Gust
kts
29/11:30pm 13.8 13.3 13.8 100 0.0 N 9 11 5 6 1023.6 - 0.0
29/11:00pm 13.8 13.3 13.8 100 0.0 N 9 13 5 7 1023.7 1023.7 0.0
29/10:30pm 13.9 13.6 13.4 97 0.3 N 7 11 4 6 1023.8 - 0.0
29/10:00pm 14.2 13.6 13.6 96 0.3 N 9 11 5 6 1023.8 1023.8 0.0
29/09:30pm 14.3 14.1 13.5 95 0.4 NW 7 7 4 4 1023.8 - 0.0
29/09:00pm 14.2 14.0 13.6 96 0.3 NW 7 9 4 5 1023.9 1023.9 0.0
29/08:30pm 14.4 14.1 13.4 94 0.6 NNW 7 9 4 5 1023.8 - 0.0
29/08:00pm 14.5 14.2 13.2 92 0.7 NNW 7 9 4 5 1023.9 1023.9 0.0
29/07:30pm 14.5 15.2 13.4 93 0.6 NW 2 6 1 3 1023.9 - 0.0
29/07:00pm 14.9 15.4 12.9 88 1.1 WNW 2 7 1 4 1024.0 1024.0 0.0
29/06:30pm 15.2 14.7 12.7 85 1.4 WNW 7 9 4 5 1023.8 - 0.0
29/06:00pm 15.6 13.6 12.7 83 1.6 WSW 15 19 8 10 1023.7 1023.7 0.0
29/05:30pm 16.3 15.1 12.8 80 1.9 W 11 17 6 9 1023.4 - 0.0
29/05:00pm 16.8 15.4 12.1 74 2.6 W 11 15 6 8 1023.2 1023.2 0.0
29/04:30pm 16.9 14.6 11.8 72 2.8 W 15 19 8 10 1023.2 - 0.0
29/04:00pm 18.0 14.1 12.2 69 3.2 W 24 33 13 18 1023.1 1023.1 0.0
29/03:30pm 18.6 14.7 10.9 61 4.2 WSW 22 32 12 17 1023.1 - 0.0
29/03:00pm 18.5 15.3 11.3 63 3.9 W 19 28 10 15 1023.1 1023.1 0.0
29/02:30pm 17.9 13.9 11.9 68 3.3 WSW 24 32 13 17 1023.1 - 0.0
29/02:00pm 17.8 14.4 12.5 71 2.9 WSW 22 30 12 16 1023.0 1023.0 0.0
29/01:30pm 18.2 14.3 12.0 67 3.4 W 24 33 13 18 1022.9 - 0.0
29/01:00pm 18.8 15.7 10.4 58 4.5 WNW 17 30 9 16 1022.9 1022.9 0.0
29/12:30pm 18.2 15.2 10.6 61 4.1 W 17 24 9 13 1023.2 - 0.0
29/12:00pm 17.7 16.6 11.9 69 3.2 WNW 9 15 5 8 1023.7 1023.7 0.0
29/11:30am 17.6 16.8 12.9 74 2.6 W 9 17 5 9 1024.1 - 0.0
29/11:00am 16.9 14.9 12.8 77 2.3 W 15 20 8 11 1024.5 1024.5 0.0
29/10:30am 16.6 15.5 13.1 80 2.0 WSW 11 15 6 8 1024.9 - 0.0
29/10:00am 15.7 13.4 14.2 91 0.8 WSW 19 22 10 12 1025.1 1025.2 0.0
29/09:30am 14.9 13.2 14.7 99 0.1 W 17 24 9 13 1025.1 - 0.0
29/09:00am 13.8 12.5 13.8 100 0.0 NNW 13 17 7 9 1025.1 1025.2 0.2
29/08:30am 12.2 11.6 12.2 100 0.0 N 7 11 4 6 1024.6 - 0.2
29/08:00am 12.3 11.7 12.3 100 0.0 N 7 11 4 6 1024.3 1024.3 0.0
29/07:30am 11.7 10.5 11.7 100 0.0 N 9 13 5 7 1023.8 - 0.0
29/07:00am 11.5 10.3 11.5 100 0.0 NNW 9 13 5 7 1023.5 1023.5 0.0
29/06:30am 11.5 10.3 11.5 100 0.0 N 9 11 5 6 1023.2 - 0.0
29/06:00am 11.8 10.7 11.8 100 0.0 N 9 13 5 7 1022.9 1022.9 0.0
29/05:30am 11.5 10.6 11.5 100 0.0 N 7 9 4 5 1022.7 - 0.0
29/05:00am 11.4 10.5 11.4 100 0.0 N 7 9 4 5 1022.7 1022.7 0.0
29/04:30am 11.6 10.0 11.6 100 0.0 N 11 13 6 7 1022.8 - 0.0
29/04:00am 11.9 10.8 11.9 100 0.0 N 9 13 5 7 1022.9 1022.9 0.0
29/03:30am 11.8 9.9 11.8 100 0.0 N 13 17 7 9 1023.0 - 0.0
29/03:00am 11.6 10.0 11.6 100 0.0 N 11 15 6 8 1023.2 1023.2 0.0
29/02:30am 11.4 9.4 11.4 100 0.0 N 13 17 7 9 1023.1 - 0.0
29/02:00am 11.2 9.9 11.2 100 0.0 N 9 11 5 6 1023.4 1023.4 0.0
29/01:30am 11.3 10.4 11.3 100 0.0 NW 7 9 4 5 1023.6 - 0.0
29/01:00am 11.2 9.9 11.2 100 0.0 N 9 11 5 6 1023.4 1023.4 0.0
29/12:30am 11.5 9.9 11.5 100 0.0 N 11 13 6 7 1023.4 - 0.0
29/12:00am 11.4 9.8 11.4 100 0.0 N 11 13 6 7 1023.4 1023.4 0.0
 
Date/Time
WST
Temp
°C
App
Temp
°C
Dew
Point
Rel
Hum
%
Delta-T
°C
Wind Press
QNH
hPa
Press
MSL
hPa
Rain
since 9 am
mm
Dir
 
Spd
km/h
Gust
km/h
Spd
kts
Gust
kts
28/11:30pm 10.8 9.4 10.8 100 0.0 N 9 13 5 7 1023.6 - 0.0
28/11:00pm 10.8 9.4 10.8 100 0.0 N 9 11 5 6 1023.8 1023.8 0.0
28/10:30pm 11.0 9.2 11.0 100 0.0 N 11 13 6 7 1024.0 - 0.0
28/10:00pm 10.7 9.8 10.7 100 0.0 NW 6 7 3 4 1024.1 1024.1 0.0

Other Formats:

Comma delimited format used in spreadsheet applications
http://www.bom.gov.au/fwo/IDW60801/IDW60801.95612.axf

JavaScript Object Notation format (JSON) in row-major order
http://www.bom.gov.au/fwo/IDW60801/IDW60801.95612.json